Time;durP1;ratioP1;P1;durP2;ratioP2;P2;SDS_P1;SDS_P2;PMS_P1;PMS_P2;Temp;Humidity;BMP_temperature;BMP_pressure;BME280_temperature;BME280_humidity;BME280_pressure;Samples;Min_cycle;Max_cycle;Signal;HPM_P1;HPM_P2
2022/07/28 00:01:22;;;;;;;2.03;0.65;;;;;;;16.79;47.08;100584.94;5014961;28;20732;-72
2022/07/28 00:03:49;;;;;;;2.20;0.75;;;;;;;16.65;47.08;100565.47;5016763;28;20049;-72
2022/07/28 00:06:16;;;;;;;1.67;0.70;;;;;;;16.75;47.43;100577.22;5019498;28;20092;-73
2022/07/28 00:08:42;;;;;;;1.35;0.60;;;;;;;16.77;47.61;100577.97;5016344;28;20049;-72
2022/07/28 00:11:09;;;;;;;3.35;0.73;;;;;;;16.74;47.35;100573.69;5019044;28;20081;-72
2022/07/28 00:13:36;;;;;;;7.88;0.95;;;;;;;16.71;47.45;100570.34;5014514;28;20492;-71
2022/07/28 00:16:03;;;;;;;1.60;0.70;;;;;;;16.71;47.64;100573.03;5017692;28;20057;-72
2022/07/28 00:18:30;;;;;;;1.42;0.77;;;;;;;16.57;47.44;100554.38;5020211;28;20053;-72
2022/07/28 00:20:56;;;;;;;4.35;0.75;;;;;;;16.45;47.89;100550.75;5015057;28;20046;-72
2022/07/28 00:23:23;;;;;;;3.67;0.90;;;;;;;16.48;47.63;100572.78;5018285;28;20502;-72
2022/07/28 00:26:07;;;;;;;3.30;1.35;;;;;;;16.40;48.07;100559.06;5020669;28;20533;-72
2022/07/28 00:28:34;;;;;;;2.50;0.82;;;;;;;16.40;48.31;100564.41;5014584;28;20148;-72
2022/07/28 00:31:01;;;;;;;3.65;0.75;;;;;;;16.24;48.32;100541.50;5015572;28;20080;-71
2022/07/28 00:33:34;;;;;;;2.65;1.10;;;;;;;16.35;48.49;100550.53;5020081;28;20128;-71
2022/07/28 00:36:02;;;;;;;4.47;0.93;;;;;;;16.25;48.51;100545.91;5018710;28;20045;-71
2022/07/28 00:38:29;;;;;;;4.60;0.90;;;;;;;16.30;48.44;100558.00;5020219;28;20217;-71
2022/07/28 00:41:10;;;;;;;1.33;0.70;;;;;;;16.30;48.62;100560.69;5016919;28;20104;-71
2022/07/28 00:43:37;;;;;;;2.40;0.70;;;;;;;16.29;48.84;100574.13;5018499;28;20077;-71
2022/07/28 00:46:04;;;;;;;2.15;0.70;;;;;;;16.25;48.59;100567.28;5016529;28;20124;-72
2022/07/28 00:48:31;;;;;;;3.38;1.00;;;;;;;16.09;48.79;100538.06;5016654;28;20057;-71
2022/07/28 00:50:58;;;;;;;2.65;0.90;;;;;;;16.21;49.11;100558.63;5019958;28;20081;-72
2022/07/28 00:53:25;;;;;;;3.13;0.70;;;;;;;16.23;48.54;100554.03;5017814;28;20057;-71
2022/07/28 00:55:52;;;;;;;4.05;1.13;;;;;;;16.22;48.90;100560.31;5014126;28;20042;-71
2022/07/28 00:58:32;;;;;;;3.97;0.80;;;;;;;16.21;48.80;100557.78;5017247;28;20140;-71
2022/07/28 01:00:58;;;;;;;2.13;0.80;;;;;;;16.15;49.12;100551.03;5014325;28;20114;-71
2022/07/28 01:03:26;;;;;;;4.35;1.10;;;;;;;16.14;48.88;100557.31;5018676;28;20107;-72
2022/07/28 01:06:02;;;;;;;2.65;0.80;;;;;;;16.12;49.24;100556.56;5016936;28;20088;-72
2022/07/28 01:08:39;;;;;;;2.83;0.82;;;;;;;16.10;49.19;100550.47;5016287;28;20380;-73
2022/07/28 01:11:16;;;;;;;3.42;0.90;;;;;;;15.97;49.20;100525.53;5017000;28;20115;-73
2022/07/28 01:14:28;;;;;;;3.10;0.93;;;;;;;16.11;48.97;100550.38;5014928;28;20042;-73
2022/07/28 01:16:55;;;;;;;2.35;0.85;;;;;;;16.12;49.39;100543.22;4963682;28;20121;-73
2022/07/28 01:19:36;;;;;;;2.97;0.68;;;;;;;16.07;49.51;100539.97;4987778;28;20689;-73
2022/07/28 01:22:07;;;;;;;7.82;0.90;;;;;;;15.99;49.36;100524.50;4998495;28;20794;-72
2022/07/28 01:24:47;;;;;;;3.45;0.80;;;;;;;15.96;49.49;100518.50;5000526;28;20046;-73
2022/07/28 01:27:23;;;;;;;;;;;;;;;16.13;49.23;100542.25;4995542;28;20141;-71
2022/07/28 01:30:31;;;;;;;1.55;0.70;;;;;;;16.15;49.22;100535.00;4994057;28;20429;-73
2022/07/28 01:33:14;;;;;;;3.85;0.88;;;;;;;15.97;49.34;100506.84;4991785;28;20060;-72
2022/07/28 01:35:53;;;;;;;3.10;0.70;;;;;;;16.07;49.64;100526.63;4999299;28;20049;-72
2022/07/28 01:38:22;;;;;;;4.20;0.90;;;;;;;16.05;49.52;100521.41;4996287;28;20231;-72
2022/07/28 01:40:51;;;;;;;1.30;0.90;;;;;;;16.11;49.54;100531.66;4996488;28;20038;-72
2022/07/28 01:43:23;;;;;;;2.75;0.60;;;;;;;16.12;49.35;100532.53;4995691;28;20069;-72
2022/07/28 01:45:50;;;;;;;2.83;0.90;;;;;;;16.09;49.78;100535.41;4997372;28;20045;-72
2022/07/28 01:48:19;;;;;;;3.63;1.00;;;;;;;16.09;49.56;100536.25;4994665;28;20077;-72
2022/07/28 01:50:49;;;;;;;3.30;0.90;;;;;;;16.02;49.56;100534.13;4994420;28;22064;-72
2022/07/28 01:53:16;;;;;;;3.17;1.00;;;;;;;15.94;49.71;100528.41;4998878;28;20050;-72
2022/07/28 01:55:45;;;;;;;3.30;0.82;;;;;;;15.86;50.05;100530.75;4995954;28;20058;-71
2022/07/28 01:58:12;;;;;;;3.35;0.88;;;;;;;15.73;50.55;100517.38;4996045;28;20045;-72
2022/07/28 02:00:41;;;;;;;2.03;0.95;;;;;;;15.64;50.85;100510.81;4997830;28;20439;-72
2022/07/28 02:03:10;;;;;;;2.92;1.13;;;;;;;15.64;51.12;100513.47;4996470;28;20582;-72
2022/07/28 02:05:40;;;;;;;2.85;1.00;;;;;;;15.66;50.95;100511.56;5000428;28;21283;-72
2022/07/28 02:08:08;;;;;;;3.07;0.80;;;;;;;15.66;51.08;100521.41;4997566;28;20159;-72
2022/07/28 02:10:36;;;;;;;3.55;1.05;;;;;;;15.63;51.16;100501.09;4998523;28;20565;-72
2022/07/28 02:13:04;;;;;;;4.95;1.10;;;;;;;15.56;50.91;100505.13;4993276;28;20053;-72
2022/07/28 02:15:33;;;;;;;4.15;1.10;;;;;;;15.58;51.19;100508.56;4997406;28;20052;-72
2022/07/28 02:18:01;;;;;;;3.50;0.80;;;;;;;15.54;51.16;100506.16;5014427;28;20053;-72
2022/07/28 02:20:29;;;;;;;3.10;0.88;;;;;;;15.40;51.65;100485.72;5013094;28;20746;-72
2022/07/28 02:22:56;;;;;;;1.85;0.65;;;;;;;15.39;51.57;100487.53;5016661;28;20096;-72
2022/07/28 02:25:23;;;;;;;3.55;1.00;;;;;;;15.50;51.38;100505.50;5015041;28;20128;-72
2022/07/28 02:27:57;;;;;;;2.20;0.82;;;;;;;15.51;51.56;100495.69;5013232;28;20081;-72
2022/07/28 02:30:34;;;;;;;1.95;0.80;;;;;;;15.34;51.70;100470.97;5014491;28;20053;-72
2022/07/28 02:33:09;;;;;;;4.38;0.90;;;;;;;15.45;51.52;100484.44;5012445;28;20054;-72
2022/07/28 02:36:09;;;;;;;1.67;0.95;;;;;;;15.39;51.81;100482.19;5014617;28;21132;-72
2022/07/28 02:38:43;;;;;;;1.45;0.73;;;;;;;15.39;52.08;100481.34;5015020;28;20045;-71
2022/07/28 02:41:17;;;;;;;2.42;0.82;;;;;;;15.36;51.99;100486.88;5011075;28;20108;-72
2022/07/28 02:43:47;;;;;;;4.28;0.75;;;;;;;15.31;52.39;100481.81;5014046;28;20103;-72
2022/07/28 02:46:20;;;;;;;3.85;0.80;;;;;;;15.37;52.21;100480.56;5017392;28;20056;-72
2022/07/28 02:48:55;;;;;;;2.42;0.80;;;;;;;15.36;52.29;100490.41;5016009;28;20045;-71
2022/07/28 02:51:27;;;;;;;4.50;1.13;;;;;;;15.18;52.42;100453.38;5015645;28;20060;-72
2022/07/28 02:53:54;;;;;;;6.40;0.90;;;;;;;15.26;52.68;100472.44;5015294;28;20510;-72
2022/07/28 02:56:21;;;;;;;5.20;1.00;;;;;;;15.17;52.00;100454.34;5014125;28;20140;-72
2022/07/28 02:58:50;;;;;;;3.83;0.90;;;;;;;15.21;52.63;100471.84;5013859;28;20375;-72
2022/07/28 03:01:18;;;;;;;3.00;0.80;;;;;;;15.19;52.73;100463.09;5011836;28;20129;-72
2022/07/28 03:03:48;;;;;;;3.13;0.80;;;;;;;15.15;52.71;100474.91;5015518;28;20500;-72
2022/07/28 03:06:16;;;;;;;5.13;1.00;;;;;;;15.11;52.92;100466.25;5013421;28;20065;-71
2022/07/28 03:08:43;;;;;;;1.65;0.93;;;;;;;15.07;53.07;100449.59;5018701;28;20090;-71
2022/07/28 03:11:12;;;;;;;4.60;1.00;;;;;;;15.06;53.46;100447.88;5012467;28;20081;-71
2022/07/28 03:13:39;;;;;;;4.55;0.77;;;;;;;15.01;53.15;100454.47;5015613;28;20128;-71
2022/07/28 03:16:06;;;;;;;3.03;0.90;;;;;;;14.93;53.60;100444.31;5013273;28;20054;-71
2022/07/28 03:18:33;;;;;;;2.45;1.10;;;;;;;14.94;53.13;100439.84;5015030;28;20541;-72
2022/07/28 03:21:00;;;;;;;1.90;0.70;;;;;;;15.04;53.53;100460.47;5011931;28;20494;-72
2022/07/28 03:23:31;;;;;;;4.93;0.80;;;;;;;15.08;53.55;100459.31;5015706;28;20111;-71
2022/07/28 03:26:04;;;;;;;2.65;0.68;;;;;;;15.10;53.58;100456.56;5014897;28;20045;-72
2022/07/28 03:28:32;;;;;;;1.70;1.00;;;;;;;15.09;53.75;100463.69;5016698;28;20081;-71
2022/07/28 03:31:04;;;;;;;3.42;1.17;;;;;;;15.06;53.44;100458.56;5018441;28;20855;-71
2022/07/28 03:33:31;;;;;;;3.90;0.88;;;;;;;15.04;53.29;100451.59;5020666;28;20046;-71
2022/07/28 03:36:08;;;;;;;1.98;0.77;;;;;;;14.94;53.53;100450.50;5015906;28;20580;-71
2022/07/28 03:38:39;;;;;;;2.95;0.80;;;;;;;14.99;53.40;100456.38;5021086;28;20152;-71
2022/07/28 03:41:08;;;;;;;3.83;0.60;;;;;;;15.01;53.58;100462.47;5020401;28;20247;-72
2022/07/28 03:43:36;;;;;;;2.60;1.00;;;;;;;14.99;54.10;100461.69;5017693;28;20057;-71
2022/07/28 03:46:03;;;;;;;4.60;1.08;;;;;;;15.03;53.96;100463.22;5014779;28;20080;-70
2022/07/28 03:48:34;;;;;;;3.40;0.90;;;;;;;15.03;53.84;100465.91;5017559;28;20050;-74
2022/07/28 03:51:00;;;;;;;3.65;0.85;;;;;;;15.05;53.98;100470.19;5015468;28;20041;-72
2022/07/28 03:53:28;;;;;;;4.38;1.27;;;;;;;15.07;53.91;100475.41;5018077;28;20213;-71
2022/07/28 03:55:56;;;;;;;1.52;0.70;;;;;;;15.06;54.08;100463.03;5021935;28;20037;-71
2022/07/28 03:58:24;;;;;;;1.75;0.93;;;;;;;15.04;53.85;100463.13;5017101;28;20132;-71
2022/07/28 04:00:55;;;;;;;8.80;1.05;;;;;;;15.05;54.07;100461.31;5014301;28;20071;-71
2022/07/28 04:03:22;;;;;;;2.58;0.80;;;;;;;15.15;53.94;100466.91;5015122;28;20577;-71
2022/07/28 04:06:08;;;;;;;2.60;1.02;;;;;;;15.16;54.13;100471.28;5017941;28;20393;-71
2022/07/28 04:08:35;;;;;;;3.70;1.02;;;;;;;15.14;54.08;100462.53;5020615;28;20087;-71
2022/07/28 04:11:01;;;;;;;1.85;0.85;;;;;;;15.11;54.24;100470.75;5020220;28;20041;-71
2022/07/28 04:13:30;;;;;;;1.95;0.82;;;;;;;15.17;54.17;100473.00;5017139;28;20065;-72
2022/07/28 04:15:58;;;;;;;2.45;0.93;;;;;;;15.17;53.98;100462.34;5020231;28;20057;-73
2022/07/28 04:18:25;;;;;;;4.00;1.00;;;;;;;15.19;54.03;100466.63;5018789;28;20057;-71
2022/07/28 04:20:52;;;;;;;4.20;0.88;;;;;;;15.23;53.85;100467.28;5020537;28;20100;-71
2022/07/28 04:23:19;;;;;;;4.30;0.80;;;;;;;15.20;54.07;100462.13;5020984;28;20077;-71
2022/07/28 04:25:46;;;;;;;3.05;1.27;;;;;;;15.16;54.10;100456.13;5015113;28;20045;-71
2022/07/28 04:28:14;;;;;;;4.55;1.08;;;;;;;15.17;54.05;100460.53;5016716;28;20069;-71
2022/07/28 04:30:41;;;;;;;2.38;0.82;;;;;;;15.11;54.69;100452.09;5013553;28;20057;-71
2022/07/28 04:33:10;;;;;;;2.58;0.90;;;;;;;15.17;54.66;100451.66;5019395;28;20340;-72
2022/07/28 04:35:37;;;;;;;4.00;0.80;;;;;;;15.11;56.11;100457.41;5019036;28;22164;-71
2022/07/28 04:38:04;;;;;;;2.55;0.90;;;;;;;15.05;55.82;100456.00;5018382;28;20134;-71
2022/07/28 04:40:33;;;;;;;3.30;0.93;;;;;;;14.95;56.47;100458.38;5015313;28;20061;-73
2022/07/28 04:42:59;;;;;;;4.32;1.13;;;;;;;14.90;55.72;100443.66;5017242;28;20137;-72
2022/07/28 04:45:26;;;;;;;10.55;1.15;;;;;;;14.99;56.39;100464.38;5017663;28;20073;-72
2022/07/28 04:47:53;;;;;;;3.67;1.10;;;;;;;15.06;55.89;100473.72;5016221;28;20069;-74
2022/07/28 04:50:20;;;;;;;4.20;1.00;;;;;;;15.11;55.94;100470.75;5015873;28;20184;-72
2022/07/28 04:52:49;;;;;;;4.45;1.20;;;;;;;15.25;55.63;100473.38;5016531;28;20061;-74
2022/07/28 04:55:17;;;;;;;6.03;1.17;;;;;;;15.28;55.47;100475.81;5017529;28;20053;-72
2022/07/28 04:57:43;;;;;;;3.25;1.00;;;;;;;15.33;55.00;100479.06;5014751;28;20141;-72
2022/07/28 05:00:13;;;;;;;7.22;1.27;;;;;;;15.30;54.91;100457.91;5017501;28;20426;-74
2022/07/28 05:02:41;;;;;;;6.88;1.00;;;;;;;15.46;54.75;100466.63;5013344;28;20081;-71
2022/07/28 05:05:08;;;;;;;4.25;1.15;;;;;;;15.49;54.66;100471.75;5013863;28;20081;-72
2022/07/28 05:07:37;;;;;;;3.63;1.10;;;;;;;15.51;54.61;100474.31;5017082;28;20571;-72
2022/07/28 05:10:07;;;;;;;2.70;1.10;;;;;;;15.41;54.56;100456.28;5012392;28;20045;-72
2022/07/28 05:12:34;;;;;;;3.28;1.20;;;;;;;15.58;54.48;100467.69;5010663;28;20104;-72
2022/07/28 05:15:01;;;;;;;2.97;1.00;;;;;;;15.60;54.76;100477.25;5021858;28;20065;-71
2022/07/28 05:17:27;;;;;;;3.05;0.93;;;;;;;15.73;53.90;100478.19;5026430;28;20283;-71
2022/07/28 05:19:54;;;;;;;3.60;1.20;;;;;;;15.75;53.90;100478.06;5021229;28;20065;-72
2022/07/28 05:22:20;;;;;;;3.25;1.30;;;;;;;15.76;54.40;100472.63;5025589;28;20076;-72
2022/07/28 05:24:47;;;;;;;3.70;0.90;;;;;;;15.72;53.87;100467.59;5034239;28;20072;-71
2022/07/28 05:27:13;;;;;;;2.60;0.93;;;;;;;15.75;54.40;100468.22;5028010;28;20072;-72
2022/07/28 05:29:40;;;;;;;3.38;0.90;;;;;;;15.85;54.19;100478.31;5017392;28;20152;-72
2022/07/28 05:32:13;;;;;;;2.88;0.98;;;;;;;15.91;53.67;100475.22;5016956;28;20128;-73
2022/07/28 05:34:43;;;;;;;4.45;1.00;;;;;;;15.93;53.45;100457.25;5016219;28;20116;-72
2022/07/28 05:37:09;;;;;;;3.45;1.00;;;;;;;15.93;53.33;100446.59;5016985;28;20087;-72
2022/07/28 05:39:36;;;;;;;5.85;1.30;;;;;;;16.12;53.45;100463.94;5016470;28;23163;-72
2022/07/28 05:42:03;;;;;;;3.58;1.30;;;;;;;16.15;52.95;100470.88;5014832;28;20073;-73
2022/07/28 05:44:29;;;;;;;3.75;1.00;;;;;;;16.16;53.41;100464.56;5015396;28;20049;-71
2022/07/28 05:47:03;;;;;;;6.90;1.23;;;;;;;16.26;52.72;100465.63;5014033;28;20566;-71
2022/07/28 05:49:30;;;;;;;5.75;1.75;;;;;;;16.34;53.20;100473.13;5014508;28;20505;-71
2022/07/28 05:51:56;;;;;;;5.78;1.13;;;;;;;16.29;52.45;100452.06;5019013;28;20053;-71
2022/07/28 05:54:23;;;;;;;4.00;1.00;;;;;;;16.39;52.32;100461.16;5018000;28;20439;-71
2022/07/28 05:56:51;;;;;;;2.78;1.13;;;;;;;16.49;52.54;100467.56;5014811;28;20049;-71
2022/07/28 05:59:17;;;;;;;3.42;1.00;;;;;;;16.56;52.17;100470.66;5017023;28;20554;-71
2022/07/28 06:01:44;;;;;;;4.38;1.17;;;;;;;16.58;51.95;100474.06;5018063;28;20387;-73
2022/07/28 06:04:12;;;;;;;2.83;1.15;;;;;;;16.71;51.80;100469.59;5018440;28;20041;-72
2022/07/28 06:06:55;;;;;;;3.97;1.10;;;;;;;16.81;51.61;100457.31;5016399;28;20538;-71
2022/07/28 06:09:21;;;;;;;6.13;1.10;;;;;;;16.94;51.44;100465.28;5015408;28;20939;-71
2022/07/28 06:11:49;;;;;;;3.22;1.00;;;;;;;17.03;51.24;100461.94;5019183;28;20124;-72
2022/07/28 06:14:16;;;;;;;3.72;1.05;;;;;;;17.14;50.83;100464.72;5014474;28;20748;-71
2022/07/28 06:16:43;;;;;;;4.70;1.15;;;;;;;17.23;50.52;100467.66;5017307;28;20672;-71
2022/07/28 06:19:10;;;;;;;3.80;1.40;;;;;;;17.41;49.63;100474.34;5015469;28;21260;-72
2022/07/28 06:21:37;;;;;;;4.03;1.00;;;;;;;17.53;49.70;100460.03;5015334;28;21206;-72
2022/07/28 06:24:04;;;;;;;3.70;1.50;;;;;;;17.56;49.32;100470.53;5012773;28;20161;-72
2022/07/28 06:26:30;;;;;;;4.72;1.10;;;;;;;17.49;49.33;100450.50;5014560;28;20395;-72
2022/07/28 06:28:57;;;;;;;5.47;1.35;;;;;;;17.79;49.69;100469.66;5015373;28;20049;-72
2022/07/28 06:31:24;;;;;;;5.00;1.02;;;;;;;18.08;49.05;100463.94;5014270;28;20103;-72
2022/07/28 06:33:50;;;;;;;5.70;1.00;;;;;;;18.55;47.94;100457.53;5015652;28;20071;-72
2022/07/28 06:36:17;;;;;;;12.90;1.92;;;;;;;19.01;46.29;100462.78;5016202;28;20056;-72
2022/07/28 06:38:44;;;;;;;14.30;2.80;;;;;;;19.40;46.17;100471.25;5017198;28;20480;-71
2022/07/28 06:41:10;;;;;;;7.88;1.40;;;;;;;19.63;44.95;100464.84;5015212;28;20048;-73
2022/07/28 06:43:37;;;;;;;7.30;1.10;;;;;;;19.86;44.68;100462.91;5015396;28;20823;-73
2022/07/28 06:46:05;;;;;;;2.80;1.00;;;;;;;20.33;44.56;100464.22;5015170;28;20478;-71
2022/07/28 06:48:31;;;;;;;5.30;1.60;;;;;;;20.65;43.30;100461.44;5015578;28;20069;-71
2022/07/28 06:50:58;;;;;;;3.33;1.27;;;;;;;20.66;41.79;100464.00;5016390;28;20037;-73
2022/07/28 06:53:25;;;;;;;1.60;0.90;;;;;;;20.78;42.17;100480.09;5016201;28;20103;-72
2022/07/28 06:55:59;;;;;;;5.10;1.58;;;;;;;21.01;41.49;100484.25;5016166;28;20040;-73
2022/07/28 06:58:26;;;;;;;6.13;1.10;;;;;;;20.85;41.68;100470.47;5013170;28;20169;-72
2022/07/28 07:00:53;;;;;;;4.35;1.20;;;;;;;20.78;41.74;100480.91;5011224;28;20049;-71
2022/07/28 07:03:20;;;;;;;3.40;1.30;;;;;;;20.64;42.86;100473.19;5015630;28;20041;-72
2022/07/28 07:05:47;;;;;;;2.60;0.80;;;;;;;20.50;42.52;100466.34;5012256;28;20452;-72
2022/07/28 07:08:19;;;;;;;6.55;1.55;;;;;;;20.52;43.21;100472.44;5016911;28;20057;-72
2022/07/28 07:10:46;;;;;;;2.88;0.80;;;;;;;20.63;43.71;100471.50;5015930;28;20057;-71
2022/07/28 07:13:12;;;;;;;4.47;1.20;;;;;;;20.79;43.79;100471.84;5017331;28;20080;-71
2022/07/28 07:15:39;;;;;;;3.72;1.23;;;;;;;20.91;42.47;100469.94;5014103;28;20056;-71
2022/07/28 07:18:06;;;;;;;3.35;0.93;;;;;;;21.26;42.62;100470.31;5014874;28;20136;-73
2022/07/28 07:20:32;;;;;;;4.88;1.10;;;;;;;21.63;40.90;100466.97;5013720;28;20140;-72
2022/07/28 07:22:59;;;;;;;4.55;1.08;;;;;;;21.52;40.67;100469.81;5012383;28;20152;-72
2022/07/28 07:25:26;;;;;;;2.35;0.88;;;;;;;21.30;41.37;100449.34;5016741;28;20108;-72
2022/07/28 07:27:52;;;;;;;7.05;1.20;;;;;;;21.73;40.94;100459.75;5014534;28;20489;-73
2022/07/28 07:30:19;;;;;;;6.07;1.67;;;;;;;22.12;40.09;100459.75;5012114;28;20069;-71
2022/07/28 07:32:46;;;;;;;8.82;1.63;;;;;;;22.05;39.27;100462.16;5014500;28;20787;-70
2022/07/28 07:35:12;;;;;;;4.13;1.00;;;;;;;21.79;39.62;100453.78;5014579;28;20128;-71
2022/07/28 07:37:39;;;;;;;4.32;1.30;;;;;;;21.62;39.83;100449.09;5018708;28;20077;-73
2022/07/28 07:40:07;;;;;;;5.05;1.35;;;;;;;21.65;39.90;100444.28;5013986;28;20092;-71
2022/07/28 07:42:33;;;;;;;5.60;1.20;;;;;;;21.69;40.09;100450.25;5014505;28;20192;-71
2022/07/28 07:45:00;;;;;;;4.30;1.10;;;;;;;21.75;39.84;100456.91;5013168;28;20095;-71
2022/07/28 07:47:27;;;;;;;4.93;1.10;;;;;;;21.78;41.24;100448.53;5012326;28;20295;-71
2022/07/28 07:49:54;;;;;;;4.18;1.40;;;;;;;21.88;40.60;100444.84;5013421;28;20079;-74
2022/07/28 07:52:21;;;;;;;2.42;1.17;;;;;;;22.13;39.54;100439.88;5012173;28;20061;-72
2022/07/28 07:54:47;;;;;;;2.58;1.05;;;;;;;22.21;40.17;100448.94;5012738;28;20104;-71
2022/07/28 07:57:14;;;;;;;6.07;1.17;;;;;;;22.18;39.54;100443.00;5015020;28;20065;-72
2022/07/28 07:59:40;;;;;;;5.60;1.00;;;;;;;22.10;39.88;100424.84;5012931;28;20373;-73
2022/07/28 08:02:07;;;;;;;3.00;0.80;;;;;;;22.43;39.68;100436.13;5011114;28;20649;-72
2022/07/28 08:04:34;;;;;;;5.72;1.20;;;;;;;22.55;40.20;100441.19;5011757;28;20062;-72
2022/07/28 08:07:05;;;;;;;7.20;1.20;;;;;;;22.92;38.37;100448.44;5016078;28;20056;-73
2022/07/28 08:09:32;;;;;;;7.65;1.20;;;;;;;22.89;38.68;100421.75;5014366;28;20535;-73
2022/07/28 08:11:59;;;;;;;6.68;1.30;;;;;;;23.05;38.18;100436.28;5013159;28;20143;-72
2022/07/28 08:14:25;;;;;;;3.90;1.10;;;;;;;23.39;37.52;100436.50;5017722;28;20490;-72
2022/07/28 08:16:53;;;;;;;6.57;1.48;;;;;;;23.62;37.95;100433.34;5018551;28;20123;-72
2022/07/28 08:19:19;;;;;;;2.55;0.88;;;;;;;23.79;37.77;100409.00;5016349;28;20098;-72
2022/07/28 08:21:47;;;;;;;2.13;0.70;;;;;;;23.87;36.52;100434.44;5018745;28;20103;-72
2022/07/28 08:24:14;;;;;;;5.07;1.27;;;;;;;24.22;36.20;100425.41;5017155;28;20453;-73
2022/07/28 08:26:59;;;;;;;5.93;1.00;;;;;;;24.34;35.91;100432.28;5018088;28;20183;-72
2022/07/28 08:29:26;;;;;;;5.40;1.65;;;;;;;24.61;35.72;100434.78;5015189;28;20069;-72
2022/07/28 08:31:52;;;;;;;4.32;1.00;;;;;;;24.59;35.80;100433.25;5015752;28;20585;-72
2022/07/28 08:34:19;;;;;;;2.90;0.93;;;;;;;24.53;35.80;100431.22;5014771;28;20516;-73
2022/07/28 08:36:58;;;;;;;4.88;1.50;;;;;;;24.31;35.70;100438.84;5017171;28;20095;-73
2022/07/28 08:39:25;;;;;;;3.63;1.02;;;;;;;23.73;36.81;100425.03;5014676;28;20134;-72
2022/07/28 08:42:07;;;;;;;2.80;1.02;;;;;;;23.55;38.33;100432.28;5016353;28;20065;-73
2022/07/28 08:44:49;;;;;;;6.45;2.13;;;;;;;23.69;37.03;100442.56;5013866;28;20175;-72
2022/07/28 08:47:16;;;;;;;3.25;1.30;;;;;;;23.61;37.99;100437.09;5018788;28;20063;-73
2022/07/28 08:49:46;;;;;;;5.13;1.20;;;;;;;23.78;37.44;100437.06;5015868;28;20077;-73
2022/07/28 08:52:13;;;;;;;5.77;1.10;;;;;;;23.91;37.05;100425.84;5017921;28;20057;-73
2022/07/28 08:54:44;;;;;;;2.20;1.00;;;;;;;23.99;37.38;100428.59;5016953;28;20117;-72
2022/07/28 08:57:19;;;;;;;4.95;1.35;;;;;;;23.87;37.26;100412.78;5017437;28;20271;-72
2022/07/28 08:59:48;;;;;;;5.07;1.17;;;;;;;24.06;36.61;100427.00;5014886;28;20146;-72
2022/07/28 09:02:15;;;;;;;4.95;1.17;;;;;;;24.13;37.28;100428.03;5014065;28;20085;-73
2022/07/28 09:04:43;;;;;;;4.75;1.10;;;;;;;24.05;36.88;100424.44;5017975;28;20526;-73
2022/07/28 09:07:10;;;;;;;4.30;1.13;;;;;;;24.19;37.39;100423.00;5016857;28;20077;-73
2022/07/28 09:09:38;;;;;;;14.52;1.65;;;;;;;24.45;36.64;100422.00;5012938;28;20064;-73
2022/07/28 09:12:05;;;;;;;2.92;1.38;;;;;;;24.79;36.07;100423.88;5015843;28;20076;-72
2022/07/28 09:14:33;;;;;;;2.10;1.05;;;;;;;24.95;36.04;100423.97;5019271;28;20517;-73
2022/07/28 09:17:01;;;;;;;5.30;1.15;;;;;;;25.09;35.55;100415.22;5019386;28;20080;-72
2022/07/28 09:19:30;;;;;;;2.65;1.00;;;;;;;25.04;35.78;100411.28;5011078;28;20137;-72
2022/07/28 09:22:01;;;;;;;8.57;1.58;;;;;;;24.83;35.53;100412.56;5014792;28;20053;-73
2022/07/28 09:24:34;;;;;;;4.90;1.38;;;;;;;24.62;36.48;100422.09;5011801;28;20049;-72
2022/07/28 09:27:06;;;;;;;5.53;1.20;;;;;;;24.07;36.90;100404.34;5013716;28;20053;-73
2022/07/28 09:29:34;;;;;;;6.03;1.42;;;;;;;23.94;37.26;100412.00;5012878;28;20054;-72
2022/07/28 09:32:01;;;;;;;3.47;1.25;;;;;;;23.98;37.29;100410.69;5013471;28;20132;-73
2022/07/28 09:34:28;;;;;;;2.50;1.00;;;;;;;24.00;38.33;100411.38;5013614;28;20072;-73
2022/07/28 09:36:55;;;;;;;3.28;1.20;;;;;;;24.06;37.98;100409.91;5028746;28;20058;-73
2022/07/28 09:39:32;;;;;;;8.35;1.20;;;;;;;24.12;37.41;100396.56;5014391;28;20042;-71
2022/07/28 09:41:59;;;;;;;3.33;1.20;;;;;;;23.99;37.00;100385.34;5016878;28;20057;-71
2022/07/28 09:44:27;;;;;;;3.25;1.13;;;;;;;24.08;37.54;100397.06;5014355;28;20045;-73
2022/07/28 09:46:55;;;;;;;5.40;1.65;;;;;;;24.12;37.58;100399.28;5017839;28;20110;-71
2022/07/28 09:49:40;;;;;;;3.95;2.20;;;;;;;24.33;37.91;100398.94;5013111;28;20112;-73
2022/07/28 09:52:08;;;;;;;5.63;1.58;;;;;;;24.39;37.11;100397.47;5016306;28;20599;-73
2022/07/28 09:54:35;;;;;;;7.03;1.30;;;;;;;24.33;37.66;100393.53;5012922;28;20107;-72
2022/07/28 09:57:10;;;;;;;5.97;1.40;;;;;;;24.34;37.47;100391.69;5014589;28;20129;-71
2022/07/28 09:59:40;;;;;;;;;;;;;;;24.44;37.00;100393.25;5008718;28;21442;-72
2022/07/28 10:02:10;;;;;;;2.88;1.38;;;;;;;24.48;36.76;100391.06;5017961;28;20472;-71
2022/07/28 10:04:39;;;;;;;3.70;1.10;;;;;;;24.45;36.84;100385.97;5014791;28;20068;-73
2022/07/28 10:07:15;;;;;;;3.45;1.48;;;;;;;24.55;36.66;100372.34;5011356;28;20081;-73
2022/07/28 10:09:43;;;;;;;3.55;1.40;;;;;;;24.60;37.08;100365.41;5016780;28;20076;-73
2022/07/28 10:12:22;;;;;;;3.17;1.30;;;;;;;24.78;36.38;100368.88;5015096;28;20143;-72
2022/07/28 10:14:50;;;;;;;3.88;1.40;;;;;;;24.95;36.12;100368.94;5013761;28;20098;-72
2022/07/28 10:17:33;;;;;;;4.55;1.30;;;;;;;24.94;36.68;100345.56;5014044;28;20058;-72
2022/07/28 10:20:01;;;;;;;3.90;1.52;;;;;;;25.07;36.27;100356.78;5009551;28;20128;-73
2022/07/28 10:22:32;;;;;;;4.68;1.30;;;;;;;25.05;36.40;100347.97;5014520;28;20560;-73
2022/07/28 10:25:06;;;;;;;4.07;1.20;;;;;;;25.16;36.39;100353.94;5016046;28;20849;-72
2022/07/28 10:27:33;;;;;;;3.85;1.40;;;;;;;25.39;36.19;100348.69;5017986;28;20103;-72
2022/07/28 10:30:03;;;;;;;2.90;1.40;;;;;;;25.64;36.60;100346.03;5016800;28;20131;-72
2022/07/28 10:32:40;;;;;;;3.78;1.50;;;;;;;25.89;35.33;100344.97;5016704;28;20550;-71
2022/07/28 10:35:10;;;;;;;3.80;1.52;;;;;;;26.09;34.36;100340.03;5019888;28;20602;-71
2022/07/28 10:37:42;;;;;;;4.40;1.27;;;;;;;26.29;34.50;100346.78;5023352;28;20046;-70
2022/07/28 10:40:11;;;;;;;3.47;1.30;;;;;;;26.45;34.15;100335.00;5021104;28;20095;-74
2022/07/28 10:42:39;;;;;;;2.22;1.27;;;;;;;26.63;33.85;100335.59;5024655;28;20064;-71
2022/07/28 10:45:10;;;;;;;4.57;1.33;;;;;;;26.72;33.10;100340.00;5022967;28;20053;-72
2022/07/28 10:47:36;;;;;;;2.53;1.20;;;;;;;26.67;33.12;100341.53;5021157;28;20054;-72
2022/07/28 10:50:04;;;;;;;3.72;1.20;;;;;;;26.64;32.89;100331.88;5019463;28;20091;-71
2022/07/28 10:52:32;;;;;;;3.17;1.48;;;;;;;26.62;33.01;100328.47;5028752;28;20950;-72
2022/07/28 10:55:40;;;;;;;5.75;1.42;;;;;;;26.54;33.44;100301.38;5020092;28;20654;-71
2022/07/28 10:58:46;;;;;;;3.88;1.63;;;;;;;26.77;33.04;100325.84;5021096;28;20037;-71
2022/07/28 11:01:39;;;;;;;2.22;1.40;;;;;;;26.86;33.00;100328.38;5013586;28;20107;-72
2022/07/28 11:04:40;;;;;;;3.38;1.50;;;;;;;26.95;32.58;100323.75;5025376;28;20060;-71
2022/07/28 11:07:11;;;;;;;3.72;1.60;;;;;;;26.78;32.48;100311.25;5026047;28;20088;-72
2022/07/28 11:09:38;;;;;;;4.57;1.15;;;;;;;26.85;32.39;100326.69;5023572;28;20132;-72
2022/07/28 11:12:05;;;;;;;3.63;1.17;;;;;;;26.95;32.15;100315.59;5014059;28;20153;-73
2022/07/28 11:14:36;;;;;;;3.15;1.27;;;;;;;27.08;31.82;100323.16;5017188;28;20083;-74
2022/07/28 11:17:05;;;;;;;3.05;1.30;;;;;;;26.99;31.77;100311.50;5015439;28;21009;-72
2022/07/28 11:19:42;;;;;;;3.10;1.40;;;;;;;26.96;32.26;100309.13;5018000;28;20045;-73
2022/07/28 11:22:28;;;;;;;3.15;1.42;;;;;;;27.04;32.29;100310.97;5018561;28;20125;-72
2022/07/28 11:24:57;;;;;;;3.22;1.20;;;;;;;27.04;31.90;100309.09;5015288;28;20053;-71
2022/07/28 11:27:42;;;;;;;3.45;1.20;;;;;;;27.01;33.09;100284.16;5016271;28;20080;-71
2022/07/28 11:30:32;;;;;;;3.33;1.45;;;;;;;27.21;31.90;100301.69;5010036;28;20046;-72
2022/07/28 11:33:00;;;;;;;5.28;1.38;;;;;;;27.28;31.84;100285.47;5018443;28;20053;-75
2022/07/28 11:35:28;;;;;;;2.63;1.40;;;;;;;27.31;32.31;100277.78;5017690;28;20061;-74
2022/07/28 11:38:01;;;;;;;5.75;1.10;;;;;;;27.35;31.88;100292.72;5016542;28;21682;-71
2022/07/28 11:40:35;;;;;;;2.90;1.42;;;;;;;27.26;32.21;100285.66;5015518;28;20560;-72